Time;durP1;ratioP1;P1;durP2;ratioP2;P2;SDS_P1;SDS_P2;PMS_P1;PMS_P2;Temp;Humidity;BMP_temperature;BMP_pressure;BME280_temperature;BME280_humidity;BME280_pressure;Samples;Min_cycle;Max_cycle;Signal;HPM_P1;HPM_P2
2023/06/12 00:01:42;;;;;;;8.02;5.13;;;;;;;16.82;nan;99978.28;5053605;28;20451;-71
2023/06/12 00:04:08;;;;;;;12.77;5.45;;;;;;;16.80;nan;99976.69;5059993;28;20020;-72
2023/06/12 00:06:35;;;;;;;13.70;5.43;;;;;;;16.75;nan;99974.03;5043911;28;20180;-71
2023/06/12 00:09:01;;;;;;;7.45;5.45;;;;;;;16.74;nan;99969.81;5059182;28;20024;-71
2023/06/12 00:11:27;;;;;;;12.18;5.75;;;;;;;16.66;nan;99964.25;5057806;28;20028;-71
2023/06/12 00:13:52;;;;;;;10.98;5.70;;;;;;;16.77;nan;99982.53;5058308;28;20044;-72
2023/06/12 00:16:17;;;;;;;13.50;5.68;;;;;;;16.69;nan;99977.00;5057794;28;20074;-70
2023/06/12 00:18:43;;;;;;;11.93;5.72;;;;;;;16.77;nan;99995.03;5060470;28;20441;-71
2023/06/12 00:21:11;;;;;;;10.50;5.85;;;;;;;16.77;nan;99985.19;5056180;28;20115;-70
2023/06/12 00:23:37;;;;;;;10.90;5.60;;;;;;;16.74;nan;99991.06;5057642;28;20052;-70
2023/06/12 00:26:03;;;;;;;11.18;5.72;;;;;;;16.71;nan;99983.66;5062029;28;20459;-70
2023/06/12 00:28:29;;;;;;;13.23;6.00;;;;;;;16.67;nan;99979.16;5040673;28;20028;-71
2023/06/12 00:30:54;;;;;;;16.00;5.47;;;;;;;16.60;nan;99976.81;5044856;28;20572;-70
2023/06/12 00:33:20;;;;;;;8.93;5.57;;;;;;;16.44;nan;99949.50;5054334;28;20112;-71
2023/06/12 00:35:45;;;;;;;9.63;5.75;;;;;;;16.72;nan;99987.88;5056749;28;20032;-70
2023/06/12 00:38:11;;;;;;;16.75;6.10;;;;;;;16.63;nan;99978.13;5044815;28;20627;-71
2023/06/12 00:40:37;;;;;;;9.63;6.10;;;;;;;16.61;nan;99973.06;5058755;28;20501;-71
2023/06/12 00:43:02;;;;;;;13.35;6.40;;;;;;;16.66;nan;99982.88;5057985;28;20071;-71
2023/06/12 00:45:28;;;;;;;16.17;6.72;;;;;;;16.63;nan;99976.25;5057178;28;20056;-71
2023/06/12 00:47:56;;;;;;;11.32;6.63;;;;;;;16.71;nan;99990.81;5056493;28;20033;-71
2023/06/12 00:50:28;;;;;;;11.23;6.00;;;;;;;16.65;nan;99976.75;5056962;28;20024;-71
2023/06/12 00:52:55;;;;;;;9.93;5.85;;;;;;;16.66;nan;99982.88;5054280;28;20029;-71
2023/06/12 00:55:21;;;;;;;10.63;6.47;;;;;;;16.57;nan;99964.84;5055501;28;20063;-71
2023/06/12 00:57:47;;;;;;;15.95;6.43;;;;;;;16.59;nan;99968.03;5044548;28;20036;-70
2023/06/12 01:00:14;;;;;;;11.70;6.30;;;;;;;16.62;nan;99972.00;5055762;28;20033;-70
2023/06/12 01:02:45;;;;;;;12.60;6.50;;;;;;;16.71;nan;99985.50;5055307;28;20024;-72
2023/06/12 01:05:13;;;;;;;14.18;6.85;;;;;;;16.67;nan;99990.59;5042108;28;20028;-72
2023/06/12 01:07:51;;;;;;;12.45;6.78;;;;;;;16.70;nan;99989.22;5058152;28;20263;-70
2023/06/12 01:10:25;;;;;;;12.60;6.25;;;;;;;16.68;nan;99981.53;5047680;28;20037;-71
2023/06/12 01:12:52;;;;;;;9.73;6.28;;;;;;;16.63;nan;99978.13;5043670;28;20055;-71
2023/06/12 01:15:18;;;;;;;17.70;6.32;;;;;;;16.62;nan;99982.66;5059271;28;20059;-71
2023/06/12 01:17:43;;;;;;;11.73;6.95;;;;;;;16.55;nan;99971.53;5055003;28;20028;-70
2023/06/12 01:20:11;;;;;;;9.85;6.18;;;;;;;16.64;nan;99985.00;5054756;28;20041;-71
2023/06/12 01:23:00;;;;;;;11.95;6.60;;;;;;;16.63;nan;99988.75;5056510;28;20138;-71
2023/06/12 01:25:47;;;;;;;16.15;6.68;;;;;;;16.61;nan;99986.34;5059479;28;20028;-71
2023/06/12 01:28:13;;;;;;;14.68;6.93;;;;;;;16.61;nan;99989.00;5057652;28;20020;-70
2023/06/12 01:30:59;;;;;;;13.48;6.32;;;;;;;16.61;nan;99983.69;5055577;28;20539;-72
2023/06/12 01:33:32;;;;;;;8.63;6.32;;;;;;;16.58;nan;99981.59;5058664;28;20028;-70
2023/06/12 01:36:00;;;;;;;12.02;6.55;;;;;;;16.61;nan;99986.34;5056733;28;20032;-71
2023/06/12 01:38:28;;;;;;;12.80;6.05;;;;;;;16.59;nan;99984.00;5063049;28;20032;-70
2023/06/12 01:40:55;;;;;;;12.55;5.95;;;;;;;16.58;nan;99982.38;5057299;28;20471;-70
2023/06/12 01:43:24;;;;;;;13.77;6.47;;;;;;;16.58;nan;99989.56;5059306;28;20032;-70
2023/06/12 01:45:49;;;;;;;12.52;6.38;;;;;;;16.54;nan;99988.53;5052689;28;20028;-70
2023/06/12 01:48:16;;;;;;;13.52;6.22;;;;;;;16.45;nan;99982.19;5059436;28;20029;-70
2023/06/12 01:50:42;;;;;;;11.95;5.72;;;;;;;16.50;nan;99987.50;5056577;28;20487;-71
2023/06/12 01:53:10;;;;;;;10.88;6.05;;;;;;;16.44;nan;99978.75;5057430;28;20017;-71
2023/06/12 01:55:36;;;;;;;10.60;6.15;;;;;;;16.48;nan;99979.78;5057998;28;20033;-71
2023/06/12 01:58:01;;;;;;;11.10;6.45;;;;;;;16.48;nan;99982.44;5041455;28;20497;-71
2023/06/12 02:00:27;;;;;;;12.60;5.97;;;;;;;16.49;nan;99980.56;5059036;28;20386;-71
2023/06/12 02:02:53;;;;;;;12.20;6.07;;;;;;;16.49;nan;99993.88;5054395;28;20036;-72
2023/06/12 02:05:20;;;;;;;11.23;6.10;;;;;;;16.46;nan;99991.75;5055708;28;20609;-72
2023/06/12 02:07:45;;;;;;;14.90;6.25;;;;;;;16.42;nan;99993.38;5056290;28;20032;-71
2023/06/12 02:10:10;;;;;;;10.98;6.28;;;;;;;16.34;nan;99981.47;5059030;28;20711;-72
2023/06/12 02:12:36;;;;;;;11.23;6.22;;;;;;;16.36;nan;99987.28;5051850;28;20040;-72
2023/06/12 02:15:01;;;;;;;10.93;5.95;;;;;;;16.31;nan;99996.09;5057488;28;20921;-72
2023/06/12 02:17:27;;;;;;;9.98;6.20;;;;;;;16.31;nan;99992.63;5055878;28;20517;-72
2023/06/12 02:19:52;;;;;;;12.25;6.07;;;;;;;16.20;nan;99970.63;5055843;28;20055;-71
2023/06/12 02:22:18;;;;;;;13.75;6.28;;;;;;;16.31;nan;99992.63;5056079;28;20131;-71
2023/06/12 02:24:43;;;;;;;12.82;6.43;;;;;;;16.24;nan;99992.94;5054994;28;20391;-71
2023/06/12 02:27:10;;;;;;;12.48;6.10;;;;;;;16.25;nan;99997.16;5034472;28;20066;-71
2023/06/12 02:29:35;;;;;;;13.32;6.43;;;;;;;16.23;nan;99986.00;5053520;28;20036;-70
2023/06/12 02:32:01;;;;;;;12.95;6.25;;;;;;;16.26;nan;99996.09;5052958;28;20359;-70
2023/06/12 02:34:26;;;;;;;14.27;6.13;;;;;;;16.28;nan;100009.91;5054780;28;20064;-70
2023/06/12 02:36:51;;;;;;;11.93;6.45;;;;;;;16.25;nan;99999.81;5057369;28;20032;-71
2023/06/12 02:39:17;;;;;;;12.35;6.85;;;;;;;16.19;nan;99984.19;5056139;28;20504;-68
2023/06/12 02:41:45;;;;;;;12.93;6.40;;;;;;;16.24;nan;99984.16;5055052;28;20386;-71
2023/06/12 02:44:10;;;;;;;15.85;5.68;;;;;;;16.21;nan;99990.00;5053782;28;20033;-71
2023/06/12 02:46:50;;;;;;;13.85;6.03;;;;;;;16.24;nan;99992.13;5055132;28;20077;-71
2023/06/12 02:49:16;;;;;;;10.18;5.85;;;;;;;16.29;nan;100002.75;5054828;28;20463;-71
2023/06/12 02:51:41;;;;;;;12.50;5.97;;;;;;;16.16;nan;99982.84;5054764;28;20036;-70
2023/06/12 02:54:06;;;;;;;11.52;6.55;;;;;;;16.26;nan;99988.13;5054561;28;20040;-69
2023/06/12 02:56:32;;;;;;;15.75;6.90;;;;;;;16.25;nan;99994.50;5054756;28;20040;-71
2023/06/12 02:58:57;;;;;;;12.82;7.00;;;;;;;16.25;nan;99991.84;5057271;28;20040;-73
2023/06/12 03:01:23;;;;;;;15.57;6.70;;;;;;;16.19;nan;99984.19;5056253;28;20020;-72
2023/06/12 03:03:50;;;;;;;14.90;5.88;;;;;;;16.14;nan;99982.34;5056043;28;20356;-73
2023/06/12 03:06:16;;;;;;;13.50;6.57;;;;;;;16.16;nan;99988.97;5057095;28;20021;-72
2023/06/12 03:08:41;;;;;;;15.65;6.47;;;;;;;16.12;nan;99989.78;5046068;28;20044;-71
2023/06/12 03:11:07;;;;;;;10.90;6.20;;;;;;;16.06;nan;99978.38;5056945;28;20028;-74
2023/06/12 03:13:32;;;;;;;12.95;6.65;;;;;;;16.10;nan;99989.25;5057074;28;20067;-72
2023/06/12 03:15:58;;;;;;;14.40;7.63;;;;;;;16.12;nan;99995.88;5052423;28;20063;-73
2023/06/12 03:18:24;;;;;;;13.10;6.15;;;;;;;16.10;nan;100006.00;5058869;28;20033;-72
2023/06/12 03:20:49;;;;;;;13.38;6.82;;;;;;;16.03;nan;99994.84;5058233;28;20029;-73
2023/06/12 03:23:16;;;;;;;12.68;7.47;;;;;;;16.06;nan;99993.50;5041106;28;20045;-74
2023/06/12 03:25:41;;;;;;;15.80;7.32;;;;;;;16.11;nan;100001.47;5039141;28;20025;-77
2023/06/12 03:28:06;;;;;;;13.55;6.25;;;;;;;15.88;nan;99966.50;5041814;28;21102;-77
2023/06/12 03:30:32;;;;;;;9.93;6.35;;;;;;;16.06;nan;100002.28;5042092;28;20033;-76
2023/06/12 03:32:57;;;;;;;14.23;6.45;;;;;;;16.11;nan;100010.25;5038151;28;20045;-76
2023/06/12 03:35:23;;;;;;;13.15;6.78;;;;;;;16.04;nan;100008.94;5042657;28;20555;-78
2023/06/12 03:37:49;;;;;;;14.05;6.57;;;;;;;16.03;nan;100015.31;5040087;28;20040;-75
2023/06/12 03:40:14;;;;;;;16.80;7.30;;;;;;;16.11;nan;100028.03;5039004;28;20028;-75
2023/06/12 03:42:40;;;;;;;13.55;6.95;;;;;;;15.85;nan;99987.47;5037167;28;20550;-75
2023/06/12 03:45:06;;;;;;;12.68;7.07;;;;;;;16.10;nan;100024.59;5048155;28;20075;-76
2023/06/12 03:47:31;;;;;;;10.68;7.25;;;;;;;16.17;nan;100034.94;5039495;28;20145;-76
2023/06/12 03:49:56;;;;;;;10.00;6.47;;;;;;;16.18;nan;100033.84;5041104;28;20493;-76
2023/06/12 03:52:22;;;;;;;12.85;7.50;;;;;;;16.21;nan;100040.47;5040802;28;20510;-77
2023/06/12 03:54:47;;;;;;;16.55;7.38;;;;;;;16.20;nan;100034.38;5040552;28;20033;-76
2023/06/12 03:57:13;;;;;;;12.07;6.30;;;;;;;16.10;nan;100029.91;5035807;28;20487;-76
2023/06/12 03:59:38;;;;;;;14.95;6.72;;;;;;;16.21;nan;100040.47;5039943;28;20123;-77
2023/06/12 04:02:04;;;;;;;11.70;6.80;;;;;;;16.19;nan;100043.44;5036213;28;20032;-77
2023/06/12 04:04:29;;;;;;;11.02;6.68;;;;;;;16.12;nan;100032.28;5036856;28;20072;-74
2023/06/12 04:06:54;;;;;;;11.70;6.55;;;;;;;16.25;nan;100058.25;5041676;28;20498;-75
2023/06/12 04:09:20;;;;;;;14.38;5.95;;;;;;;16.17;nan;100043.69;5039824;28;20108;-77
2023/06/12 04:11:49;;;;;;;14.30;6.97;;;;;;;16.31;nan;100059.84;5039244;28;20491;-76
2023/06/12 04:14:14;;;;;;;16.25;6.63;;;;;;;16.24;nan;100042.63;5037329;28;20033;-75
2023/06/12 04:16:39;;;;;;;12.95;5.93;;;;;;;16.29;nan;100055.88;5039314;28;20502;-76
2023/06/12 04:19:05;;;;;;;15.88;6.07;;;;;;;16.35;nan;100062.75;5038257;28;20140;-75
2023/06/12 04:21:35;;;;;;;10.25;6.40;;;;;;;16.29;nan;100054.00;5039578;28;20033;-75
2023/06/12 04:24:02;;;;;;;15.55;6.00;;;;;;;16.34;nan;100061.16;5055993;28;20060;-75
2023/06/12 04:26:27;;;;;;;8.80;5.70;;;;;;;16.29;nan;100047.91;5057397;28;20013;-75
2023/06/12 04:28:56;;;;;;;14.45;5.88;;;;;;;16.24;nan;100040.75;5058192;28;20043;-75
2023/06/12 04:31:23;;;;;;;15.75;6.20;;;;;;;16.24;nan;100048.72;5057714;28;20036;-75
2023/06/12 04:33:51;;;;;;;15.15;5.80;;;;;;;16.34;nan;100056.66;5058788;28;20047;-75
2023/06/12 04:36:17;;;;;;;11.98;6.53;;;;;;;16.34;nan;100056.66;5057259;28;20029;-75
2023/06/12 04:38:43;;;;;;;10.15;6.10;;;;;;;16.30;nan;100037.00;5059460;28;20087;-74
2023/06/12 04:41:11;;;;;;;10.00;6.15;;;;;;;16.24;nan;100037.31;5045878;28;20474;-74
2023/06/12 04:43:37;;;;;;;11.02;5.38;;;;;;;16.29;nan;100031.97;5057918;28;20457;-76
2023/06/12 04:46:03;;;;;;;11.32;6.57;;;;;;;16.36;nan;100049.19;5046230;28;20056;-74
2023/06/12 04:48:28;;;;;;;21.45;5.93;;;;;;;16.35;nan;100052.13;5058012;28;20025;-74
2023/06/12 04:50:54;;;;;;;9.73;6.25;;;;;;;16.35;nan;100037.00;5057313;28;20021;-74
2023/06/12 04:53:27;;;;;;;15.98;6.22;;;;;;;16.44;nan;100061.13;5056873;28;20032;-75
2023/06/12 04:55:54;;;;;;;15.98;6.70;;;;;;;16.42;nan;100042.00;5058593;28;20449;-73
2023/06/12 04:58:20;;;;;;;14.27;6.70;;;;;;;16.43;nan;100046.25;5056849;28;20029;-76
2023/06/12 05:00:47;;;;;;;10.73;6.07;;;;;;;16.42;nan;100049.97;5058007;28;20029;-76
2023/06/12 05:03:16;;;;;;;11.73;6.68;;;;;;;16.45;nan;100053.94;5056937;28;20492;-77
2023/06/12 05:05:42;;;;;;;10.38;6.15;;;;;;;16.45;nan;100052.09;5060624;28;20024;-77
2023/06/12 05:08:08;;;;;;;11.55;5.53;;;;;;;16.47;nan;100055.28;5060150;28;20059;-76
2023/06/12 05:10:33;;;;;;;11.73;6.53;;;;;;;16.44;nan;100047.03;5044578;28;20025;-77
2023/06/12 05:12:58;;;;;;;15.40;7.13;;;;;;;16.36;nan;100035.13;5058962;28;20060;-75
2023/06/12 05:15:24;;;;;;;13.88;6.75;;;;;;;16.45;nan;100046.78;5059161;28;20155;-77
2023/06/12 05:17:49;;;;;;;12.45;6.47;;;;;;;16.43;nan;100042.81;5057736;28;20039;-76
2023/06/12 05:20:15;;;;;;;14.70;6.38;;;;;;;16.45;nan;100045.97;5051757;28;20563;-75
2023/06/12 05:22:41;;;;;;;14.13;6.85;;;;;;;16.41;nan;100039.63;5052104;28;20579;-73
2023/06/12 05:25:07;;;;;;;8.55;5.85;;;;;;;16.38;nan;100047.06;5056025;28;20039;-73
2023/06/12 05:27:32;;;;;;;10.15;6.22;;;;;;;16.45;nan;100052.09;5055343;28;20036;-73
2023/06/12 05:29:57;;;;;;;11.88;5.80;;;;;;;16.39;nan;100042.53;5057394;28;20032;-74
2023/06/12 05:32:23;;;;;;;13.10;5.13;;;;;;;16.27;nan;100021.59;5052845;28;20025;-74
2023/06/12 05:34:54;;;;;;;12.40;5.63;;;;;;;16.47;nan;100049.97;5060109;28;20043;-73
2023/06/12 05:37:20;;;;;;;12.15;5.30;;;;;;;16.48;nan;100064.03;5055277;28;20506;-74
2023/06/12 05:39:45;;;;;;;12.10;5.28;;;;;;;;;;5045698;28;20060;-74
2023/06/12 05:42:11;;;;;;;11.45;5.35;;;;;;;;;;5055421;28;20017;-74
2023/06/12 05:44:36;;;;;;;12.23;5.30;;;;;;;;;;5054897;28;20040;-74
2023/06/12 05:47:01;;;;;;;14.32;5.90;;;;;;;;;;5056735;28;20032;-74
2023/06/12 05:49:26;;;;;;;12.40;4.67;;;;;;;;;;5057124;28;20021;-72
2023/06/12 05:51:52;;;;;;;12.57;5.37;;;;;;;;;;5057181;28;20759;-74
2023/06/12 05:54:17;;;;;;;11.57;4.77;;;;;;;;;;5055651;28;20036;-74
2023/06/12 05:56:42;;;;;;;8.97;4.17;;;;;;;;;;5039486;28;20028;-73
2023/06/12 05:59:07;;;;;;;12.87;4.40;;;;;;;;;;5053482;28;20032;-74
2023/06/12 06:01:34;;;;;;;9.97;4.23;;;;;;;;;;5059296;28;20497;-76
2023/06/12 06:03:59;;;;;;;8.63;5.15;;;;;;;;;;5054316;28;20435;-76
2023/06/12 06:06:24;;;;;;;12.05;5.07;;;;;;;;;;5058118;28;20072;-76
2023/06/12 06:08:49;;;;;;;12.43;4.50;;;;;;;;;;5057435;28;20199;-77
2023/06/12 06:11:15;;;;;;;10.18;4.20;;;;;;;;;;5058552;28;20112;-74
2023/06/12 06:13:43;;;;;;;11.10;4.18;;;;;;;;;;5056232;28;20043;-75
2023/06/12 06:16:09;;;;;;;8.10;3.90;;;;;;;;;;5054659;28;20364;-76
2023/06/12 06:18:34;;;;;;;17.15;4.85;;;;;;;;;;5054621;28;20043;-76
2023/06/12 06:21:00;;;;;;;13.00;4.43;;;;;;;;;;5051049;28;20040;-76
2023/06/12 06:23:25;;;;;;;12.37;4.10;;;;;;;;;;5053917;28;20060;-75
2023/06/12 06:25:50;;;;;;;8.98;4.38;;;;;;;;;;5058197;28;20379;-76
2023/06/12 06:28:16;;;;;;;10.53;4.10;;;;;;;;;;5055330;28;20494;-76
2023/06/12 06:30:42;;;;;;;8.98;4.28;;;;;;;;;;5058623;28;20289;-75
2023/06/12 06:33:07;;;;;;;10.77;4.33;;;;;;;;;;5056134;28;20028;-75
2023/06/12 06:35:33;;;;;;;8.77;4.80;;;;;;;16.49;nan;100079.72;5056477;28;20033;-75
2023/06/12 06:37:58;;;;;;;11.27;4.82;;;;;;;;;;5053259;28;20032;-76
2023/06/12 06:40:24;;;;;;;10.37;4.43;;;;;;;;;;5042255;28;20037;-74
2023/06/12 06:42:50;;;;;;;8.35;4.22;;;;;;;;;;5054264;28;20021;-74
2023/06/12 06:45:15;;;;;;;7.00;3.80;;;;;;;;;;5055060;28;20040;-75
2023/06/12 06:47:40;;;;;;;9.30;3.73;;;;;;;;;;5054213;28;20040;-75
2023/06/12 06:50:06;;;;;;;6.93;3.90;;;;;;;;;;5052347;28;20562;-76
2023/06/12 06:52:32;;;;;;;5.90;3.90;;;;;;;;;;5042908;28;20480;-77
2023/06/12 06:54:57;;;;;;;10.43;4.80;;;;;;;;;;5054032;28;20064;-72
2023/06/12 06:57:23;;;;;;;10.37;4.43;;;;;;;;;;5037002;28;20040;-71
2023/06/12 06:59:48;;;;;;;6.65;4.13;;;;;;;;;;5054948;28;20107;-71
2023/06/12 07:02:13;;;;;;;9.57;4.30;;;;;;;;;;5055347;28;20715;-70
2023/06/12 07:04:38;;;;;;;8.77;4.10;;;;;;;;;;5039471;28;20274;-71
2023/06/12 07:07:04;;;;;;;9.03;5.07;;;;;;;16.54;nan;100108.94;5052506;28;20620;-72
2023/06/12 07:09:29;;;;;;;9.88;4.78;;;;;;;16.62;nan;100115.56;5057596;28;20044;-71
2023/06/12 07:11:55;;;;;;;8.25;4.55;;;;;;;16.59;nan;100116.09;5052200;28;20033;-70
2023/06/12 07:14:20;;;;;;;9.85;4.25;;;;;;;16.58;nan;100127.78;5056666;28;20028;-71
2023/06/12 07:16:45;;;;;;;8.18;4.68;;;;;;;16.57;nan;100119.03;5054093;28;20461;-71
2023/06/12 07:19:11;;;;;;;8.18;5.03;;;;;;;16.57;nan;100118.25;5040777;28;20021;-70
2023/06/12 07:21:36;;;;;;;8.30;5.13;;;;;;;16.50;nan;100109.75;5037847;28;20029;-72
2023/06/12 07:24:03;;;;;;;11.32;5.05;;;;;;;16.61;nan;100126.47;5051772;28;20120;-71
2023/06/12 07:26:29;;;;;;;12.10;5.85;;;;;;;16.56;nan;100119.28;5035425;28;20035;-70
2023/06/12 07:28:55;;;;;;;11.30;5.22;;;;;;;16.57;nan;100124.34;5038066;28;20029;-71
2023/06/12 07:31:20;;;;;;;9.95;4.90;;;;;;;16.59;nan;100121.41;5056977;28;20052;-70
2023/06/12 07:33:46;;;;;;;7.88;5.35;;;;;;;16.61;nan;100132.56;5052864;28;20059;-69
2023/06/12 07:36:12;;;;;;;12.57;6.13;;;;;;;16.65;nan;100136.28;5052388;28;20025;-70
2023/06/12 07:38:38;;;;;;;9.20;6.18;;;;;;;16.67;nan;100139.47;5055320;28;20086;-71
2023/06/12 07:41:04;;;;;;;8.85;7.07;;;;;;;16.70;nan;100135.47;5058029;28;20108;-71
2023/06/12 07:43:34;;;;;;;12.55;7.20;;;;;;;16.78;nan;100141.06;5054335;28;20116;-71
2023/06/12 07:46:00;;;;;;;14.60;8.32;;;;;;;16.83;nan;100147.41;5055558;28;20024;-74
2023/06/12 07:48:26;;;;;;;13.95;8.20;;;;;;;16.78;nan;100133.09;5053879;28;20037;-71
2023/06/12 07:50:51;;;;;;;10.82;7.95;;;;;;;16.93;nan;100148.16;5052319;28;20037;-71
2023/06/12 07:53:16;;;;;;;12.00;8.07;;;;;;;17.00;nan;100145.22;5054363;28;20024;-71
2023/06/12 07:55:42;;;;;;;10.23;6.80;;;;;;;17.04;nan;100148.09;5039487;28;20040;-70
2023/06/12 07:58:08;;;;;;;12.93;7.13;;;;;;;17.05;nan;100142.53;5051895;28;20025;-71
2023/06/12 08:00:35;;;;;;;11.48;6.75;;;;;;;17.04;nan;100134.81;5052192;28;20131;-71
2023/06/12 08:03:02;;;;;;;16.10;6.93;;;;;;;17.09;nan;100140.88;5042317;28;20094;-71
2023/06/12 08:05:27;;;;;;;10.30;7.60;;;;;;;17.15;nan;100147.78;5057999;28;20059;-70
2023/06/12 08:07:53;;;;;;;15.88;8.82;;;;;;;17.22;nan;100152.81;5058013;28;20064;-70
2023/06/12 08:10:19;;;;;;;18.15;7.95;;;;;;;17.22;nan;100153.59;5059009;28;20029;-72
2023/06/12 08:12:44;;;;;;;24.92;8.18;;;;;;;17.19;nan;100145.34;5058291;28;20118;-72
2023/06/12 08:15:11;;;;;;;13.38;7.82;;;;;;;17.15;nan;100137.16;5057938;28;20437;-70
2023/06/12 08:17:36;;;;;;;11.70;8.13;;;;;;;17.26;nan;100147.72;5058003;28;20025;-71
2023/06/12 08:20:08;;;;;;;11.95;8.05;;;;;;;17.28;nan;100148.25;5040313;28;20090;-71
2023/06/12 08:22:34;;;;;;;11.73;8.05;;;;;;;17.30;nan;100140.78;5054452;28;20052;-70
2023/06/12 08:25:07;;;;;;;11.73;7.22;;;;;;;17.33;nan;100146.34;5056400;28;20429;-71
2023/06/12 08:27:33;;;;;;;12.43;7.70;;;;;;;17.40;nan;100154.03;5058649;28;20028;-70
2023/06/12 08:29:59;;;;;;;10.02;6.85;;;;;;;17.35;nan;100143.41;5056365;28;20025;-71
2023/06/12 08:32:25;;;;;;;8.60;6.32;;;;;;;17.34;nan;100139.97;5055584;28;20459;-71
2023/06/12 08:34:50;;;;;;;10.32;6.88;;;;;;;17.50;nan;100151.28;5056419;28;20048;-71
2023/06/12 08:37:17;;;;;;;11.35;8.25;;;;;;;17.47;nan;100153.72;5056724;28;20033;-71
2023/06/12 08:39:43;;;;;;;8.65;5.93;;;;;;;17.50;nan;100135.31;5055517;28;20021;-71
2023/06/12 08:42:12;;;;;;;12.25;6.57;;;;;;;17.64;nan;100136.28;5056460;28;20021;-70
2023/06/12 08:44:39;;;;;;;8.45;6.22;;;;;;;17.77;nan;100134.84;5055163;28;20793;-70
2023/06/12 08:47:08;;;;;;;12.23;6.90;;;;;;;17.91;nan;100144.88;5058217;28;20037;-72
2023/06/12 08:49:34;;;;;;;7.60;6.00;;;;;;;;;;5055984;28;20559;-71
2023/06/12 08:52:01;;;;;;;11.90;6.45;;;;;;;;;;5056005;28;20048;-74
2023/06/12 08:54:26;;;;;;;8.05;5.93;;;;;;;;;;5054462;28;20032;-71
2023/06/12 08:56:55;;;;;;;9.13;5.53;;;;;;;18.02;nan;100099.22;5059720;28;20035;-71
2023/06/12 08:59:21;;;;;;;8.73;6.00;;;;;;;;;;5058373;28;20044;-71
2023/06/12 09:01:52;;;;;;;7.95;6.20;;;;;;;18.11;nan;100055.97;5054169;28;20056;-72
2023/06/12 09:04:28;;;;;;;9.05;5.47;;;;;;;;;;5058470;28;20075;-71
2023/06/12 09:07:01;;;;;;;9.18;5.22;;;;;;;;;;5059544;28;20028;-72
2023/06/12 09:09:37;;;;;;;12.13;5.70;;;;;;;;;;5058605;28;20035;-73
2023/06/12 09:12:02;;;;;;;8.43;5.93;;;;;;;;;;5055412;28;20025;-73
2023/06/12 09:14:28;;;;;;;7.80;5.68;;;;;;;;;;5055952;28;20025;-73
2023/06/12 09:16:53;;;;;;;8.87;5.73;;;;;;;18.29;nan;100151.19;5054685;28;20510;-74
2023/06/12 09:19:19;;;;;;;7.32;5.32;;;;;;;;;;5038541;28;20040;-73
2023/06/12 09:21:47;;;;;;;12.23;6.25;;;;;;;;;;5053173;28;20031;-72
2023/06/12 09:24:15;;;;;;;9.70;5.63;;;;;;;18.37;nan;100077.81;5055341;28;20052;-73
2023/06/12 09:26:41;;;;;;;8.10;5.50;;;;;;;;;;5057836;28;20028;-73
2023/06/12 09:29:07;;;;;;;7.22;5.50;;;;;;;;;;5053907;28;20395;-73
2023/06/12 09:31:32;;;;;;;8.48;4.95;;;;;;;;;;5054496;28;20037;-73
2023/06/12 09:33:58;;;;;;;8.05;4.95;;;;;;;;;;5055553;28;20040;-73
2023/06/12 09:36:27;;;;;;;11.10;5.55;;;;;;;18.53;nan;100097.06;5055645;28;20032;-73
2023/06/12 09:38:53;;;;;;;5.57;4.82;;;;;;;18.45;nan;100160.63;5055652;28;20035;-73
2023/06/12 09:41:22;;;;;;;6.47;5.30;;;;;;;18.62;nan;100106.81;5053338;28;20475;-73
2023/06/12 09:43:51;;;;;;;6.93;5.47;;;;;;;18.70;nan;100132.09;5054901;28;20025;-74
2023/06/12 09:46:23;;;;;;;6.80;5.30;;;;;;;;;;5036828;28;20070;-74
2023/06/12 09:48:54;;;;;;;7.75;5.18;;;;;;;18.78;nan;100075.47;5058884;28;20021;-74
2023/06/12 09:51:21;;;;;;;8.18;5.90;;;;;;;18.76;nan;100074.94;5057140;28;20022;-75
2023/06/12 09:53:46;;;;;;;7.40;5.80;;;;;;;;;;5052928;28;20035;-74
2023/06/12 09:56:12;;;;;;;6.95;5.43;;;;;;;18.85;nan;100118.59;5059294;28;20037;-74
2023/06/12 09:58:38;;;;;;;6.75;5.60;;;;;;;18.98;nan;100097.59;5054369;28;20025;-74
2023/06/12 10:01:06;;;;;;;8.95;5.43;;;;;;;19.00;nan;100098.13;5039513;28;20471;-73
2023/06/12 10:03:37;;;;;;;11.82;6.10;;;;;;;19.04;nan;100102.59;5056745;28;20032;-71
2023/06/12 10:06:05;;;;;;;8.23;5.38;;;;;;;19.06;nan;100091.63;5039885;28;20450;-71
2023/06/12 10:08:32;;;;;;;12.18;6.85;;;;;;;19.06;nan;100088.97;5057959;28;20581;-71
2023/06/12 10:10:57;;;;;;;11.85;6.40;;;;;;;19.11;nan;100095.00;5055759;28;20032;-71
2023/06/12 10:13:25;;;;;;;9.60;6.43;;;;;;;19.15;nan;100161.16;5055017;28;20124;-72
2023/06/12 10:15:52;;;;;;;9.27;6.45;;;;;;;19.25;nan;100100.44;5055035;28;20469;-71
2023/06/12 10:18:19;;;;;;;9.35;7.10;;;;;;;19.28;nan;100160.44;5053292;28;20070;-72
2023/06/12 10:20:44;;;;;;;14.95;6.63;;;;;;;;;;5034866;28;20044;-72
2023/06/12 10:23:11;;;;;;;11.25;6.45;;;;;;;19.33;nan;100133.69;5056608;28;20045;-72
2023/06/12 10:25:37;;;;;;;14.18;6.70;;;;;;;19.47;nan;100133.75;5055600;28;20032;-71
2023/06/12 10:28:02;;;;;;;10.35;6.85;;;;;;;19.61;nan;100160.47;5054565;28;20486;-71
2023/06/12 10:30:28;;;;;;;9.70;7.10;;;;;;;19.58;nan;100153.84;5055986;28;20021;-71
2023/06/12 10:32:53;;;;;;;11.45;7.32;;;;;;;19.67;nan;100159.34;5054414;28;20020;-72
2023/06/12 10:35:32;;;;;;;11.75;7.43;;;;;;;19.76;nan;100153.06;5054700;28;20037;-71
2023/06/12 10:37:57;;;;;;;11.98;7.07;;;;;;;19.81;nan;100149.53;5047087;28;20295;-71
2023/06/12 10:40:23;;;;;;;11.05;8.27;;;;;;;19.75;nan;100131.97;5057016;28;20027;-71
2023/06/12 10:43:00;;;;;;;10.27;7.40;;;;;;;19.73;nan;100129.59;5052914;28;20029;-71
2023/06/12 10:45:28;;;;;;;10.57;7.43;;;;;;;19.73;nan;100140.28;5057134;28;20115;-71
2023/06/12 10:48:02;;;;;;;9.82;7.05;;;;;;;19.84;nan;100145.47;5056651;28;20025;-71
2023/06/12 10:50:34;;;;;;;10.05;7.18;;;;;;;19.84;nan;100140.91;5054843;28;20025;-70
2023/06/12 10:53:02;;;;;;;13.55;7.70;;;;;;;19.88;nan;100139.25;5051255;28;20122;-71
2023/06/12 10:55:27;;;;;;;10.40;7.50;;;;;;;19.92;nan;100144.78;5053195;28;20037;-72
2023/06/12 10:57:55;;;;;;;15.13;7.63;;;;;;;19.82;nan;100124.38;5058056;28;20037;-71
2023/06/12 11:00:34;;;;;;;10.38;6.88;;;;;;;19.89;nan;100137.34;5054907;28;20373;-71
2023/06/12 11:03:05;;;;;;;9.75;6.90;;;;;;;19.90;nan;100122.94;5037486;28;20135;-72
2023/06/12 11:05:32;;;;;;;13.70;7.18;;;;;;;20.00;nan;100132.66;5055728;28;20158;-71
2023/06/12 11:08:00;;;;;;;10.45;7.38;;;;;;;20.00;nan;100128.09;5053392;28;21430;-72
2023/06/12 11:10:27;;;;;;;12.90;8.25;;;;;;;20.01;nan;100121.66;5052345;28;20078;-72
2023/06/12 11:12:53;;;;;;;9.30;7.35;;;;;;;20.03;nan;100111.44;5053988;28;20025;-72
2023/06/12 11:15:19;;;;;;;15.27;8.18;;;;;;;20.23;nan;100125.53;5056427;28;20066;-72
2023/06/12 11:17:45;;;;;;;9.20;7.47;;;;;;;20.26;nan;100120.41;5051289;28;20036;-72
2023/06/12 11:20:12;;;;;;;12.27;8.32;;;;;;;20.25;nan;100108.09;5054993;28;20029;-71
2023/06/12 11:22:37;;;;;;;9.82;8.10;;;;;;;20.39;nan;100124.16;5054106;28;20507;-71
2023/06/12 11:25:05;;;;;;;9.68;7.85;;;;;;;20.41;nan;100119.31;5038968;28;20043;-72
2023/06/12 11:27:30;;;;;;;9.88;7.47;;;;;;;20.44;nan;100124.06;5053238;28;20047;-71
2023/06/12 11:29:57;;;;;;;9.75;7.47;;;;;;;20.38;nan;100111.88;5051783;28;20108;-71
2023/06/12 11:32:22;;;;;;;9.60;7.03;;;;;;;20.44;nan;100118.69;5035778;28;20021;-72
2023/06/12 11:34:51;;;;;;;10.63;7.70;;;;;;;20.49;nan;100121.28;5052020;28;20102;-71
2023/06/12 11:37:20;;;;;;;9.38;7.57;;;;;;;20.65;nan;100134.41;5054311;28;20031;-71
2023/06/12 11:39:46;;;;;;;9.77;7.57;;;;;;;20.60;nan;100116.56;5056141;28;20048;-68
2023/06/12 11:42:12;;;;;;;10.48;6.78;;;;;;;20.63;nan;100126.66;5057026;28;20518;-68
2023/06/12 11:44:38;;;;;;;10.57;7.35;;;;;;;20.68;nan;100123.88;5059799;28;20111;-73
2023/06/12 11:47:05;;;;;;;13.18;6.90;;;;;;;20.71;nan;100125.16;5059996;28;20029;-69
2023/06/12 11:49:32;;;;;;;8.40;6.97;;;;;;;20.67;nan;100106.25;5043042;28;20064;-68
2023/06/12 11:51:59;;;;;;;8.65;7.22;;;;;;;20.81;nan;100127.63;5060435;28;20059;-69
2023/06/12 11:54:24;;;;;;;9.05;6.55;;;;;;;20.81;nan;100123.06;5056961;28;20025;-69
2023/06/12 11:56:50;;;;;;;9.98;6.18;;;;;;;20.76;nan;100106.34;5059033;28;20078;-69
2023/06/12 11:59:16;;;;;;;10.90;6.72;;;;;;;20.87;nan;100123.75;5041859;28;20024;-69
2023/06/12 12:01:45;;;;;;;9.90;7.28;;;;;;;20.87;nan;100118.41;5056347;28;20032;-69
2023/06/12 12:04:10;;;;;;;9.45;6.38;;;;;;;20.82;nan;100111.25;5060988;28;20036;-69